sensor_id;sensor_type;location;lat;lon;timestamp;P1;durP1;ratioP1;P2;durP2;ratioP2
6739;SDS011;3407;49.882;10.920;2023-10-31T00:00:28;1.63;;;1.53;;
6739;SDS011;3407;49.882;10.920;2023-10-31T00:05:24;2.13;;;1.93;;
6739;SDS011;3407;49.882;10.920;2023-10-31T00:10:19;1.60;;;1.50;;
6739;SDS011;3407;49.882;10.920;2023-10-31T00:15:15;2.37;;;1.97;;
6739;SDS011;3407;49.882;10.920;2023-10-31T00:20:11;2.10;;;1.93;;
6739;SDS011;3407;49.882;10.920;2023-10-31T00:25:06;2.53;;;2.30;;
6739;SDS011;3407;49.882;10.920;2023-10-31T00:30:02;2.43;;;2.27;;
6739;SDS011;3407;49.882;10.920;2023-10-31T00:34:58;2.17;;;2.07;;
6739;SDS011;3407;49.882;10.920;2023-10-31T00:39:54;1.63;;;1.53;;
6739;SDS011;3407;49.882;10.920;2023-10-31T00:44:49;2.17;;;2.07;;
6739;SDS011;3407;49.882;10.920;2023-10-31T00:49:45;2.07;;;1.83;;
6739;SDS011;3407;49.882;10.920;2023-10-31T00:54:41;1.47;;;1.37;;
6739;SDS011;3407;49.882;10.920;2023-10-31T00:59:37;1.33;;;1.33;;
6739;SDS011;3407;49.882;10.920;2023-10-31T01:04:35;1.10;;;1.10;;
6739;SDS011;3407;49.882;10.920;2023-10-31T01:09:32;1.10;;;1.10;;
6739;SDS011;3407;49.882;10.920;2023-10-31T01:14:27;1.10;;;1.10;;
6739;SDS011;3407;49.882;10.920;2023-10-31T01:19:23;1.80;;;1.23;;
6739;SDS011;3407;49.882;10.920;2023-10-31T01:24:18;0.90;;;0.90;;
6739;SDS011;3407;49.882;10.920;2023-10-31T01:29:14;0.77;;;0.77;;
6739;SDS011;3407;49.882;10.920;2023-10-31T01:34:09;0.90;;;0.90;;
6739;SDS011;3407;49.882;10.920;2023-10-31T01:39:05;0.90;;;0.90;;
6739;SDS011;3407;49.882;10.920;2023-10-31T01:44:00;0.97;;;0.97;;
6739;SDS011;3407;49.882;10.920;2023-10-31T01:48:56;0.90;;;0.90;;
6739;SDS011;3407;49.882;10.920;2023-10-31T01:53:51;0.80;;;0.80;;
6739;SDS011;3407;49.882;10.920;2023-10-31T01:58:48;0.80;;;0.80;;
6739;SDS011;3407;49.882;10.920;2023-10-31T02:03:44;1.10;;;1.10;;
6739;SDS011;3407;49.882;10.920;2023-10-31T02:08:40;1.00;;;1.00;;
6739;SDS011;3407;49.882;10.920;2023-10-31T02:13:36;1.07;;;1.07;;
6739;SDS011;3407;49.882;10.920;2023-10-31T02:18:33;1.00;;;1.00;;
6739;SDS011;3407;49.882;10.920;2023-10-31T02:23:28;1.00;;;1.00;;
6739;SDS011;3407;49.882;10.920;2023-10-31T02:28:24;1.00;;;1.00;;
6739;SDS011;3407;49.882;10.920;2023-10-31T02:33:22;0.90;;;0.90;;
6739;SDS011;3407;49.882;10.920;2023-10-31T02:38:18;1.63;;;1.53;;
6739;SDS011;3407;49.882;10.920;2023-10-31T02:43:13;1.00;;;1.00;;
6739;SDS011;3407;49.882;10.920;2023-10-31T02:48:09;1.00;;;1.00;;
6739;SDS011;3407;49.882;10.920;2023-10-31T02:53:04;0.80;;;0.80;;
6739;SDS011;3407;49.882;10.920;2023-10-31T02:58:00;0.90;;;0.90;;
6739;SDS011;3407;49.882;10.920;2023-10-31T03:02:55;0.80;;;0.80;;
6739;SDS011;3407;49.882;10.920;2023-10-31T03:07:51;0.90;;;0.90;;
6739;SDS011;3407;49.882;10.920;2023-10-31T03:12:47;0.90;;;0.90;;
6739;SDS011;3407;49.882;10.920;2023-10-31T03:17:43;1.10;;;1.10;;
6739;SDS011;3407;49.882;10.920;2023-10-31T03:22:39;1.00;;;1.00;;
6739;SDS011;3407;49.882;10.920;2023-10-31T03:27:34;0.80;;;0.80;;
6739;SDS011;3407;49.882;10.920;2023-10-31T03:32:30;0.90;;;0.90;;
6739;SDS011;3407;49.882;10.920;2023-10-31T03:37:25;2.40;;;1.07;;
6739;SDS011;3407;49.882;10.920;2023-10-31T03:42:21;1.10;;;1.10;;
6739;SDS011;3407;49.882;10.920;2023-10-31T03:47:16;0.90;;;0.90;;
6739;SDS011;3407;49.882;10.920;2023-10-31T03:52:12;0.80;;;0.80;;
6739;SDS011;3407;49.882;10.920;2023-10-31T03:57:07;1.00;;;1.00;;
6739;SDS011;3407;49.882;10.920;2023-10-31T04:02:03;1.00;;;1.00;;
6739;SDS011;3407;49.882;10.920;2023-10-31T04:06:58;0.90;;;0.90;;
6739;SDS011;3407;49.882;10.920;2023-10-31T04:11:54;1.40;;;0.87;;
6739;SDS011;3407;49.882;10.920;2023-10-31T04:16:49;1.37;;;1.37;;
6739;SDS011;3407;49.882;10.920;2023-10-31T04:21:45;1.00;;;1.00;;
6739;SDS011;3407;49.882;10.920;2023-10-31T04:26:40;1.00;;;1.00;;
6739;SDS011;3407;49.882;10.920;2023-10-31T04:31:36;1.00;;;1.00;;
6739;SDS011;3407;49.882;10.920;2023-10-31T04:36:32;0.90;;;0.90;;
6739;SDS011;3407;49.882;10.920;2023-10-31T04:41:27;0.90;;;0.90;;
6739;SDS011;3407;49.882;10.920;2023-10-31T04:46:24;1.00;;;1.00;;
6739;SDS011;3407;49.882;10.920;2023-10-31T04:51:22;0.97;;;0.97;;
6739;SDS011;3407;49.882;10.920;2023-10-31T04:56:18;1.10;;;1.10;;
6739;SDS011;3407;49.882;10.920;2023-10-31T05:01:15;1.40;;;1.30;;
6739;SDS011;3407;49.882;10.920;2023-10-31T05:06:11;0.90;;;0.90;;
6739;SDS011;3407;49.882;10.920;2023-10-31T05:11:07;0.90;;;0.90;;
6739;SDS011;3407;49.882;10.920;2023-10-31T05:16:03;0.90;;;0.90;;
6739;SDS011;3407;49.882;10.920;2023-10-31T05:20:58;1.00;;;1.00;;
6739;SDS011;3407;49.882;10.920;2023-10-31T05:25:54;0.90;;;0.90;;
6739;SDS011;3407;49.882;10.920;2023-10-31T05:30:50;1.00;;;1.00;;
6739;SDS011;3407;49.882;10.920;2023-10-31T05:35:46;1.10;;;1.10;;
6739;SDS011;3407;49.882;10.920;2023-10-31T05:40:42;0.90;;;0.90;;
6739;SDS011;3407;49.882;10.920;2023-10-31T05:45:37;0.90;;;0.90;;
6739;SDS011;3407;49.882;10.920;2023-10-31T05:50:33;1.00;;;1.00;;
6739;SDS011;3407;49.882;10.920;2023-10-31T05:55:28;0.90;;;0.90;;
6739;SDS011;3407;49.882;10.920;2023-10-31T06:00:24;0.90;;;0.90;;
6739;SDS011;3407;49.882;10.920;2023-10-31T06:05:19;0.90;;;0.90;;
6739;SDS011;3407;49.882;10.920;2023-10-31T06:10:15;0.90;;;0.90;;
6739;SDS011;3407;49.882;10.920;2023-10-31T06:15:10;0.83;;;0.83;;
6739;SDS011;3407;49.882;10.920;2023-10-31T06:20:09;0.80;;;0.80;;
6739;SDS011;3407;49.882;10.920;2023-10-31T06:25:05;0.90;;;0.90;;
6739;SDS011;3407;49.882;10.920;2023-10-31T06:30:01;1.00;;;1.00;;
6739;SDS011;3407;49.882;10.920;2023-10-31T06:34:57;27.27;;;1.23;;
6739;SDS011;3407;49.882;10.920;2023-10-31T06:39:53;0.80;;;0.80;;
6739;SDS011;3407;49.882;10.920;2023-10-31T06:44:48;1.00;;;1.00;;
6739;SDS011;3407;49.882;10.920;2023-10-31T06:49:44;0.90;;;0.90;;
6739;SDS011;3407;49.882;10.920;2023-10-31T06:54:39;1.00;;;1.00;;
6739;SDS011;3407;49.882;10.920;2023-10-31T06:59:35;0.80;;;0.80;;
6739;SDS011;3407;49.882;10.920;2023-10-31T07:04:30;0.83;;;0.83;;
6739;SDS011;3407;49.882;10.920;2023-10-31T07:09:26;0.90;;;0.90;;
6739;SDS011;3407;49.882;10.920;2023-10-31T07:14:22;0.80;;;0.80;;
6739;SDS011;3407;49.882;10.920;2023-10-31T07:19:17;0.90;;;0.90;;
6739;SDS011;3407;49.882;10.920;2023-10-31T07:24:13;0.83;;;0.83;;
6739;SDS011;3407;49.882;10.920;2023-10-31T07:29:08;0.93;;;0.93;;
6739;SDS011;3407;49.882;10.920;2023-10-31T07:34:04;0.77;;;0.77;;
6739;SDS011;3407;49.882;10.920;2023-10-31T07:39:00;0.90;;;0.90;;
6739;SDS011;3407;49.882;10.920;2023-10-31T07:43:56;0.87;;;0.87;;
6739;SDS011;3407;49.882;10.920;2023-10-31T07:48:51;0.90;;;0.90;;
6739;SDS011;3407;49.882;10.920;2023-10-31T07:53:47;0.70;;;0.70;;
6739;SDS011;3407;49.882;10.920;2023-10-31T07:58:43;0.90;;;0.90;;
6739;SDS011;3407;49.882;10.920;2023-10-31T08:03:38;0.90;;;0.90;;
6739;SDS011;3407;49.882;10.920;2023-10-31T08:08:34;0.80;;;0.80;;
6739;SDS011;3407;49.882;10.920;2023-10-31T08:13:29;0.80;;;0.80;;
6739;SDS011;3407;49.882;10.920;2023-10-31T08:18:25;0.90;;;0.90;;
6739;SDS011;3407;49.882;10.920;2023-10-31T08:23:20;1.00;;;1.00;;
6739;SDS011;3407;49.882;10.920;2023-10-31T08:28:16;0.80;;;0.80;;
6739;SDS011;3407;49.882;10.920;2023-10-31T08:33:11;0.77;;;0.77;;
6739;SDS011;3407;49.882;10.920;2023-10-31T08:38:07;0.80;;;0.80;;
6739;SDS011;3407;49.882;10.920;2023-10-31T08:43:03;0.93;;;0.93;;
6739;SDS011;3407;49.882;10.920;2023-10-31T08:48:01;0.70;;;0.70;;
6739;SDS011;3407;49.882;10.920;2023-10-31T08:52:56;0.80;;;0.80;;
6739;SDS011;3407;49.882;10.920;2023-10-31T08:57:52;0.70;;;0.70;;
6739;SDS011;3407;49.882;10.920;2023-10-31T09:02:48;0.80;;;0.80;;
6739;SDS011;3407;49.882;10.920;2023-10-31T09:07:43;0.77;;;0.77;;
6739;SDS011;3407;49.882;10.920;2023-10-31T09:12:39;0.90;;;0.90;;
6739;SDS011;3407;49.882;10.920;2023-10-31T09:17:34;0.73;;;0.73;;
6739;SDS011;3407;49.882;10.920;2023-10-31T09:22:30;0.80;;;0.80;;
6739;SDS011;3407;49.882;10.920;2023-10-31T09:27:25;0.80;;;0.80;;
6739;SDS011;3407;49.882;10.920;2023-10-31T09:32:21;0.80;;;0.80;;
6739;SDS011;3407;49.882;10.920;2023-10-31T09:37:16;0.70;;;0.70;;
6739;SDS011;3407;49.882;10.920;2023-10-31T09:42:13;0.80;;;0.80;;
6739;SDS011;3407;49.882;10.920;2023-10-31T09:47:08;0.70;;;0.70;;
6739;SDS011;3407;49.882;10.920;2023-10-31T09:52:04;0.70;;;0.70;;
6739;SDS011;3407;49.882;10.920;2023-10-31T09:57:02;0.70;;;0.70;;
6739;SDS011;3407;49.882;10.920;2023-10-31T10:01:57;0.80;;;0.80;;
6739;SDS011;3407;49.882;10.920;2023-10-31T10:06:59;1.00;;;1.00;;
6739;SDS011;3407;49.882;10.920;2023-10-31T10:11:56;0.80;;;0.80;;
6739;SDS011;3407;49.882;10.920;2023-10-31T10:16:54;0.80;;;0.80;;
6739;SDS011;3407;49.882;10.920;2023-10-31T10:21:51;0.70;;;0.70;;
6739;SDS011;3407;49.882;10.920;2023-10-31T10:26:47;0.67;;;0.67;;
6739;SDS011;3407;49.882;10.920;2023-10-31T10:31:43;0.70;;;0.70;;
6739;SDS011;3407;49.882;10.920;2023-10-31T10:36:39;0.80;;;0.80;;
6739;SDS011;3407;49.882;10.920;2023-10-31T10:41:35;2.57;;;0.87;;
6739;SDS011;3407;49.882;10.920;2023-10-31T10:46:36;0.70;;;0.70;;
6739;SDS011;3407;49.882;10.920;2023-10-31T10:51:36;0.53;;;0.53;;
6739;SDS011;3407;49.882;10.920;2023-10-31T10:56:46;0.80;;;0.80;;
6739;SDS011;3407;49.882;10.920;2023-10-31T11:01:50;0.60;;;0.60;;
6739;SDS011;3407;49.882;10.920;2023-10-31T11:06:47;0.70;;;0.70;;
6739;SDS011;3407;49.882;10.920;2023-10-31T11:11:44;0.60;;;0.60;;
6739;SDS011;3407;49.882;10.920;2023-10-31T11:16:54;0.60;;;0.60;;
6739;SDS011;3407;49.882;10.920;2023-10-31T11:21:53;0.60;;;0.60;;
6739;SDS011;3407;49.882;10.920;2023-10-31T11:26:53;0.70;;;0.70;;
6739;SDS011;3407;49.882;10.920;2023-10-31T11:31:56;0.60;;;0.60;;
6739;SDS011;3407;49.882;10.920;2023-10-31T11:36:51;0.70;;;0.70;;
6739;SDS011;3407;49.882;10.920;2023-10-31T11:41:50;0.60;;;0.60;;
6739;SDS011;3407;49.882;10.920;2023-10-31T11:46:50;0.70;;;0.70;;
6739;SDS011;3407;49.882;10.920;2023-10-31T11:51:47;0.67;;;0.67;;
6739;SDS011;3407;49.882;10.920;2023-10-31T11:56:42;0.73;;;0.73;;
6739;SDS011;3407;49.882;10.920;2023-10-31T12:01:47;0.73;;;0.73;;
6739;SDS011;3407;49.882;10.920;2023-10-31T12:06:43;0.83;;;0.83;;
6739;SDS011;3407;49.882;10.920;2023-10-31T12:11:43;0.80;;;0.80;;
6739;SDS011;3407;49.882;10.920;2023-10-31T12:16:40;0.70;;;0.70;;
6739;SDS011;3407;49.882;10.920;2023-10-31T12:21:36;0.80;;;0.80;;
6739;SDS011;3407;49.882;10.920;2023-10-31T12:26:36;0.70;;;0.70;;
6739;SDS011;3407;49.882;10.920;2023-10-31T12:31:33;0.70;;;0.70;;
6739;SDS011;3407;49.882;10.920;2023-10-31T12:36:28;0.60;;;0.60;;
6739;SDS011;3407;49.882;10.920;2023-10-31T12:41:24;0.60;;;0.60;;
6739;SDS011;3407;49.882;10.920;2023-10-31T12:46:29;0.50;;;0.50;;
6739;SDS011;3407;49.882;10.920;2023-10-31T12:51:25;0.60;;;0.60;;
6739;SDS011;3407;49.882;10.920;2023-10-31T12:56:36;0.80;;;0.80;;
6739;SDS011;3407;49.882;10.920;2023-10-31T13:01:36;0.70;;;0.70;;
6739;SDS011;3407;49.882;10.920;2023-10-31T13:06:37;0.70;;;0.70;;
6739;SDS011;3407;49.882;10.920;2023-10-31T13:11:33;0.70;;;0.70;;
6739;SDS011;3407;49.882;10.920;2023-10-31T13:16:29;0.73;;;0.73;;
6739;SDS011;3407;49.882;10.920;2023-10-31T13:21:24;0.70;;;0.70;;
6739;SDS011;3407;49.882;10.920;2023-10-31T13:26:20;0.60;;;0.60;;
6739;SDS011;3407;49.882;10.920;2023-10-31T13:31:15;0.60;;;0.60;;
6739;SDS011;3407;49.882;10.920;2023-10-31T13:36:11;0.60;;;0.60;;
6739;SDS011;3407;49.882;10.920;2023-10-31T13:41:07;0.57;;;0.57;;
6739;SDS011;3407;49.882;10.920;2023-10-31T13:46:03;0.70;;;0.70;;
6739;SDS011;3407;49.882;10.920;2023-10-31T13:50:59;0.60;;;0.60;;
6739;SDS011;3407;49.882;10.920;2023-10-31T13:55:55;0.60;;;0.60;;
6739;SDS011;3407;49.882;10.920;2023-10-31T14:00:50;0.70;;;0.70;;
6739;SDS011;3407;49.882;10.920;2023-10-31T14:05:46;0.70;;;0.70;;
6739;SDS011;3407;49.882;10.920;2023-10-31T14:10:41;0.60;;;0.60;;
6739;SDS011;3407;49.882;10.920;2023-10-31T14:15:41;0.60;;;0.60;;
6739;SDS011;3407;49.882;10.920;2023-10-31T14:20:36;0.67;;;0.67;;
6739;SDS011;3407;49.882;10.920;2023-10-31T14:25:33;0.60;;;0.60;;
6739;SDS011;3407;49.882;10.920;2023-10-31T14:30:29;0.60;;;0.60;;
6739;SDS011;3407;49.882;10.920;2023-10-31T14:35:24;0.60;;;0.60;;
6739;SDS011;3407;49.882;10.920;2023-10-31T14:40:20;0.60;;;0.60;;
6739;SDS011;3407;49.882;10.920;2023-10-31T14:45:15;0.70;;;0.70;;
6739;SDS011;3407;49.882;10.920;2023-10-31T14:50:11;0.70;;;0.70;;
6739;SDS011;3407;49.882;10.920;2023-10-31T14:55:06;0.87;;;0.87;;
6739;SDS011;3407;49.882;10.920;2023-10-31T15:00:04;0.60;;;0.60;;
6739;SDS011;3407;49.882;10.920;2023-10-31T15:05:02;0.70;;;0.70;;
6739;SDS011;3407;49.882;10.920;2023-10-31T15:09:58;0.70;;;0.70;;
6739;SDS011;3407;49.882;10.920;2023-10-31T15:14:54;0.80;;;0.80;;
6739;SDS011;3407;49.882;10.920;2023-10-31T15:19:50;0.70;;;0.70;;
6739;SDS011;3407;49.882;10.920;2023-10-31T15:24:45;0.80;;;0.80;;
6739;SDS011;3407;49.882;10.920;2023-10-31T15:29:41;0.80;;;0.80;;
6739;SDS011;3407;49.882;10.920;2023-10-31T15:34:38;0.80;;;0.80;;
6739;SDS011;3407;49.882;10.920;2023-10-31T15:39:35;0.90;;;0.90;;
6739;SDS011;3407;49.882;10.920;2023-10-31T15:44:32;0.80;;;0.80;;
6739;SDS011;3407;49.882;10.920;2023-10-31T15:49:27;0.77;;;0.77;;
6739;SDS011;3407;49.882;10.920;2023-10-31T15:54:23;0.80;;;0.80;;
6739;SDS011;3407;49.882;10.920;2023-10-31T15:59:19;0.87;;;0.87;;
6739;SDS011;3407;49.882;10.920;2023-10-31T16:04:14;0.80;;;0.80;;
6739;SDS011;3407;49.882;10.920;2023-10-31T16:09:10;0.80;;;0.80;;
6739;SDS011;3407;49.882;10.920;2023-10-31T16:14:05;0.93;;;0.93;;
6739;SDS011;3407;49.882;10.920;2023-10-31T16:19:01;0.90;;;0.90;;
6739;SDS011;3407;49.882;10.920;2023-10-31T16:23:57;1.03;;;1.03;;
6739;SDS011;3407;49.882;10.920;2023-10-31T16:28:53;0.73;;;0.73;;
6739;SDS011;3407;49.882;10.920;2023-10-31T16:33:49;0.70;;;0.70;;
6739;SDS011;3407;49.882;10.920;2023-10-31T16:38:45;0.70;;;0.70;;
6739;SDS011;3407;49.882;10.920;2023-10-31T16:43:40;0.80;;;0.80;;
6739;SDS011;3407;49.882;10.920;2023-10-31T16:48:36;0.80;;;0.80;;
6739;SDS011;3407;49.882;10.920;2023-10-31T16:53:31;0.90;;;0.90;;
6739;SDS011;3407;49.882;10.920;2023-10-31T16:58:27;1.00;;;0.90;;
6739;SDS011;3407;49.882;10.920;2023-10-31T17:03:23;1.13;;;1.13;;
6739;SDS011;3407;49.882;10.920;2023-10-31T17:08:19;0.90;;;0.90;;
6739;SDS011;3407;49.882;10.920;2023-10-31T17:13:15;0.80;;;0.80;;
6739;SDS011;3407;49.882;10.920;2023-10-31T17:18:11;0.90;;;0.90;;
6739;SDS011;3407;49.882;10.920;2023-10-31T17:23:08;0.87;;;0.87;;
6739;SDS011;3407;49.882;10.920;2023-10-31T17:28:03;0.90;;;0.90;;
6739;SDS011;3407;49.882;10.920;2023-10-31T17:33:00;0.90;;;0.90;;
6739;SDS011;3407;49.882;10.920;2023-10-31T17:37:56;0.90;;;0.90;;
6739;SDS011;3407;49.882;10.920;2023-10-31T17:42:51;0.80;;;0.80;;
6739;SDS011;3407;49.882;10.920;2023-10-31T17:47:47;0.97;;;0.97;;
6739;SDS011;3407;49.882;10.920;2023-10-31T17:52:43;0.80;;;0.80;;
6739;SDS011;3407;49.882;10.920;2023-10-31T17:57:38;1.10;;;1.03;;
6739;SDS011;3407;49.882;10.920;2023-10-31T18:02:34;1.10;;;1.10;;
6739;SDS011;3407;49.882;10.920;2023-10-31T18:07:30;0.90;;;0.90;;
6739;SDS011;3407;49.882;10.920;2023-10-31T18:12:25;1.00;;;1.00;;
6739;SDS011;3407;49.882;10.920;2023-10-31T18:17:21;1.10;;;1.10;;
6739;SDS011;3407;49.882;10.920;2023-10-31T18:22:16;0.90;;;0.90;;
6739;SDS011;3407;49.882;10.920;2023-10-31T18:27:13;1.37;;;1.37;;
6739;SDS011;3407;49.882;10.920;2023-10-31T18:32:09;1.00;;;1.00;;
6739;SDS011;3407;49.882;10.920;2023-10-31T18:37:04;1.03;;;1.03;;
6739;SDS011;3407;49.882;10.920;2023-10-31T18:42:00;1.23;;;1.23;;
6739;SDS011;3407;49.882;10.920;2023-10-31T18:46:56;1.53;;;1.20;;
6739;SDS011;3407;49.882;10.920;2023-10-31T18:51:51;1.00;;;1.00;;
6739;SDS011;3407;49.882;10.920;2023-10-31T18:56:47;0.90;;;0.90;;
6739;SDS011;3407;49.882;10.920;2023-10-31T19:01:43;1.30;;;1.30;;
6739;SDS011;3407;49.882;10.920;2023-10-31T19:06:39;0.90;;;0.90;;
6739;SDS011;3407;49.882;10.920;2023-10-31T19:11:36;1.27;;;1.27;;
6739;SDS011;3407;49.882;10.920;2023-10-31T19:16:32;0.90;;;0.90;;
6739;SDS011;3407;49.882;10.920;2023-10-31T19:21:29;1.30;;;1.20;;
6739;SDS011;3407;49.882;10.920;2023-10-31T19:26:25;1.00;;;1.00;;
6739;SDS011;3407;49.882;10.920;2023-10-31T19:31:20;0.97;;;0.97;;
6739;SDS011;3407;49.882;10.920;2023-10-31T19:36:16;1.00;;;1.00;;
6739;SDS011;3407;49.882;10.920;2023-10-31T19:41:13;0.90;;;0.90;;
6739;SDS011;3407;49.882;10.920;2023-10-31T19:46:09;0.90;;;0.90;;
6739;SDS011;3407;49.882;10.920;2023-10-31T19:51:05;1.10;;;1.10;;
6739;SDS011;3407;49.882;10.920;2023-10-31T19:56:04;0.90;;;0.90;;
6739;SDS011;3407;49.882;10.920;2023-10-31T20:01:00;0.93;;;0.93;;
6739;SDS011;3407;49.882;10.920;2023-10-31T20:05:55;1.00;;;1.00;;
6739;SDS011;3407;49.882;10.920;2023-10-31T20:10:51;0.90;;;0.90;;
6739;SDS011;3407;49.882;10.920;2023-10-31T20:15:46;1.37;;;1.37;;
6739;SDS011;3407;49.882;10.920;2023-10-31T20:20:44;0.90;;;0.90;;
6739;SDS011;3407;49.882;10.920;2023-10-31T20:25:40;0.80;;;0.80;;
6739;SDS011;3407;49.882;10.920;2023-10-31T20:30:36;0.90;;;0.90;;
6739;SDS011;3407;49.882;10.920;2023-10-31T20:35:32;1.00;;;1.00;;
6739;SDS011;3407;49.882;10.920;2023-10-31T20:40:27;1.10;;;1.10;;
6739;SDS011;3407;49.882;10.920;2023-10-31T20:45:24;0.90;;;0.90;;
6739;SDS011;3407;49.882;10.920;2023-10-31T20:50:20;1.10;;;1.10;;
6739;SDS011;3407;49.882;10.920;2023-10-31T20:55:17;0.80;;;0.80;;
6739;SDS011;3407;49.882;10.920;2023-10-31T21:00:13;0.90;;;0.90;;
6739;SDS011;3407;49.882;10.920;2023-10-31T21:05:09;0.93;;;0.93;;
6739;SDS011;3407;49.882;10.920;2023-10-31T21:10:04;0.90;;;0.90;;
6739;SDS011;3407;49.882;10.920;2023-10-31T21:15:01;5.63;;;2.03;;
6739;SDS011;3407;49.882;10.920;2023-10-31T21:19:59;0.90;;;0.90;;
6739;SDS011;3407;49.882;10.920;2023-10-31T21:24:54;1.20;;;1.20;;
6739;SDS011;3407;49.882;10.920;2023-10-31T21:29:52;0.93;;;0.93;;
6739;SDS011;3407;49.882;10.920;2023-10-31T21:34:48;0.87;;;0.87;;
6739;SDS011;3407;49.882;10.920;2023-10-31T21:39:43;0.90;;;0.90;;
6739;SDS011;3407;49.882;10.920;2023-10-31T21:44:40;1.07;;;1.03;;
6739;SDS011;3407;49.882;10.920;2023-10-31T21:49:35;0.90;;;0.90;;
6739;SDS011;3407;49.882;10.920;2023-10-31T21:54:31;0.80;;;0.80;;
6739;SDS011;3407;49.882;10.920;2023-10-31T21:59:27;1.23;;;1.10;;
6739;SDS011;3407;49.882;10.920;2023-10-31T22:04:23;0.80;;;0.80;;
6739;SDS011;3407;49.882;10.920;2023-10-31T22:09:19;1.07;;;1.07;;
6739;SDS011;3407;49.882;10.920;2023-10-31T22:14:16;0.83;;;0.83;;
6739;SDS011;3407;49.882;10.920;2023-10-31T22:19:11;0.87;;;0.87;;
6739;SDS011;3407;49.882;10.920;2023-10-31T22:24:07;0.90;;;0.90;;
6739;SDS011;3407;49.882;10.920;2023-10-31T22:29:03;1.10;;;1.10;;
6739;SDS011;3407;49.882;10.920;2023-10-31T22:33:59;1.00;;;1.00;;
6739;SDS011;3407;49.882;10.920;2023-10-31T22:38:54;0.93;;;0.93;;
6739;SDS011;3407;49.882;10.920;2023-10-31T22:43:50;1.07;;;0.97;;
6739;SDS011;3407;49.882;10.920;2023-10-31T22:48:45;0.90;;;0.90;;
6739;SDS011;3407;49.882;10.920;2023-10-31T22:53:41;0.80;;;0.80;;
6739;SDS011;3407;49.882;10.920;2023-10-31T22:58:36;0.90;;;0.90;;
6739;SDS011;3407;49.882;10.920;2023-10-31T23:03:32;0.90;;;0.90;;
6739;SDS011;3407;49.882;10.920;2023-10-31T23:08:27;0.90;;;0.90;;
6739;SDS011;3407;49.882;10.920;2023-10-31T23:13:23;0.90;;;0.90;;
6739;SDS011;3407;49.882;10.920;2023-10-31T23:18:18;1.00;;;1.00;;
6739;SDS011;3407;49.882;10.920;2023-10-31T23:23:14;0.90;;;0.90;;
6739;SDS011;3407;49.882;10.920;2023-10-31T23:28:10;1.07;;;1.07;;
6739;SDS011;3407;49.882;10.920;2023-10-31T23:33:05;0.80;;;0.80;;
6739;SDS011;3407;49.882;10.920;2023-10-31T23:38:01;0.97;;;0.97;;
6739;SDS011;3407;49.882;10.920;2023-10-31T23:42:56;0.90;;;0.90;;
6739;SDS011;3407;49.882;10.920;2023-10-31T23:47:52;0.80;;;0.80;;
6739;SDS011;3407;49.882;10.920;2023-10-31T23:52:47;0.80;;;0.80;;
6739;SDS011;3407;49.882;10.920;2023-10-31T23:57:44;0.80;;;0.80;;
